createdAt,value
2017-08-27T00:02:07.793Z,101188
2017-08-27T00:04:35.957Z,101186
2017-08-27T00:07:04.154Z,101177
2017-08-27T00:09:32.317Z,101175
2017-08-27T00:12:00.495Z,101167
2017-08-27T00:14:28.676Z,101175
2017-08-27T00:16:56.837Z,101168
2017-08-27T00:19:24.990Z,101173
2017-08-27T00:21:53.166Z,101167
2017-08-27T00:24:21.316Z,101182
2017-08-27T00:26:49.496Z,101168
2017-08-27T00:29:17.673Z,101169
2017-08-27T00:31:46.602Z,101171
2017-08-27T00:34:14.755Z,101170
2017-08-27T00:36:42.977Z,101165
2017-08-27T00:39:11.145Z,101170
2017-08-27T00:41:39.317Z,101178
2017-08-27T00:44:07.520Z,101176
2017-08-27T00:46:35.676Z,101176
2017-08-27T00:49:03.830Z,101175
2017-08-27T00:51:32.021Z,101174
2017-08-27T00:54:00.176Z,101175
2017-08-27T00:56:28.344Z,101180
2017-08-27T00:58:56.546Z,101179
2017-08-27T01:01:24.693Z,101175
2017-08-27T01:03:52.860Z,101181
2017-08-27T01:06:21.067Z,101185
2017-08-27T01:08:49.213Z,101188
2017-08-27T01:11:17.390Z,101194
2017-08-27T01:13:45.575Z,101194
2017-08-27T01:16:13.733Z,101196
2017-08-27T01:18:41.908Z,101195
2017-08-27T01:21:10.088Z,101201
2017-08-27T01:23:38.276Z,101200
2017-08-27T01:26:06.452Z,101201
2017-08-27T01:28:34.645Z,101199
2017-08-27T01:31:02.818Z,101198
2017-08-27T01:33:30.989Z,101194
2017-08-27T01:35:59.497Z,101200
2017-08-27T01:38:27.950Z,101200
2017-08-27T01:40:56.103Z,101209
2017-08-27T01:43:24.314Z,101212
2017-08-27T01:45:52.489Z,101219
2017-08-27T01:48:20.644Z,101214
2017-08-27T01:50:48.823Z,101207
2017-08-27T01:53:22.804Z,101211
2017-08-27T01:55:51.020Z,101223
2017-08-27T01:58:19.194Z,101213
2017-08-27T02:00:47.368Z,101217
2017-08-27T02:03:15.568Z,101212
2017-08-27T02:05:43.742Z,101222
2017-08-27T02:08:12.632Z,101217
2017-08-27T02:10:40.838Z,101215
2017-08-27T02:13:09.015Z,101221
2017-08-27T02:15:37.214Z,101224
2017-08-27T02:18:05.401Z,101214
2017-08-27T02:20:33.569Z,101224
2017-08-27T02:23:01.723Z,101231
2017-08-27T02:25:29.902Z,101223
2017-08-27T02:27:58.060Z,101226
2017-08-27T02:30:26.232Z,101229
2017-08-27T02:32:54.413Z,101234
2017-08-27T02:35:22.566Z,101236
2017-08-27T02:37:50.715Z,101230
2017-08-27T02:40:18.910Z,101236
2017-08-27T02:42:47.072Z,101239
2017-08-27T02:45:15.241Z,101232
2017-08-27T02:47:43.443Z,101231
2017-08-27T02:50:11.605Z,101235
2017-08-27T02:52:39.828Z,101237
2017-08-27T02:55:08.041Z,101242
2017-08-27T02:57:36.193Z,101241
2017-08-27T03:00:04.361Z,101241
2017-08-27T03:02:32.558Z,101244
2017-08-27T03:05:00.710Z,101243
2017-08-27T03:07:28.864Z,101241
2017-08-27T03:09:57.054Z,101246
2017-08-27T03:12:25.199Z,101243
2017-08-27T03:14:53.914Z,101247
2017-08-27T03:17:22.115Z,101250
2017-08-27T03:19:50.289Z,101251
2017-08-27T03:22:18.443Z,101246
2017-08-27T03:24:46.641Z,101255
2017-08-27T03:27:14.794Z,101257
2017-08-27T03:29:42.964Z,101251
2017-08-27T03:32:11.139Z,101255
2017-08-27T03:34:39.420Z,101252
2017-08-27T03:37:07.564Z,101254
2017-08-27T03:39:35.756Z,101248
2017-08-27T03:42:03.902Z,101256
2017-08-27T03:44:32.073Z,101262
2017-08-27T03:47:00.272Z,101253
2017-08-27T03:49:28.432Z,101264
2017-08-27T03:51:56.593Z,101260
2017-08-27T03:54:24.796Z,101263
2017-08-27T03:56:52.970Z,101259
2017-08-27T03:59:21.146Z,101259
2017-08-27T04:01:49.341Z,101269
2017-08-27T04:04:17.516Z,101277
2017-08-27T04:06:45.678Z,101277
2017-08-27T04:09:13.871Z,101278
2017-08-27T04:11:42.050Z,101272
2017-08-27T04:14:10.199Z,101273
2017-08-27T04:16:38.403Z,101269
2017-08-27T04:19:06.572Z,101261
2017-08-27T04:21:34.737Z,101272
2017-08-27T04:24:02.936Z,101281
2017-08-27T04:26:31.083Z,101279
2017-08-27T04:28:59.256Z,101286
2017-08-27T04:31:27.426Z,101282
2017-08-27T04:33:55.588Z,101282
2017-08-27T04:36:23.756Z,101289
2017-08-27T04:38:51.942Z,101294
2017-08-27T04:41:20.091Z,101292
2017-08-27T04:43:48.269Z,101299
2017-08-27T04:46:16.446Z,101306
2017-08-27T04:48:45.364Z,101306
2017-08-27T04:51:13.513Z,101301
2017-08-27T04:53:41.716Z,101304
2017-08-27T04:56:09.869Z,101307
2017-08-27T04:58:38.035Z,101304
2017-08-27T05:01:06.256Z,101304
2017-08-27T05:03:34.411Z,101297
2017-08-27T05:06:02.561Z,101302
2017-08-27T05:08:31.078Z,101306
2017-08-27T05:10:59.225Z,101306
2017-08-27T05:13:27.376Z,101304
2017-08-27T05:15:55.559Z,101314
2017-08-27T05:18:23.718Z,101315
2017-08-27T05:20:51.874Z,101312
2017-08-27T05:23:20.054Z,101315
2017-08-27T05:25:48.202Z,101312
2017-08-27T05:28:16.371Z,101319
2017-08-27T05:30:44.573Z,101323
2017-08-27T05:33:12.726Z,101334
2017-08-27T05:35:40.907Z,101336
2017-08-27T05:38:09.095Z,101337
2017-08-27T05:40:37.247Z,101328
2017-08-27T05:43:05.404Z,101334
2017-08-27T05:45:33.598Z,101333
2017-08-27T05:48:01.758Z,101337
2017-08-27T05:50:29.910Z,101342
2017-08-27T05:52:58.095Z,101337
2017-08-27T05:55:26.246Z,101343
2017-08-27T05:57:54.408Z,101346
2017-08-27T06:00:22.842Z,101347
2017-08-27T06:02:51.022Z,101346
2017-08-27T06:05:19.178Z,101340
2017-08-27T06:07:47.380Z,101343
2017-08-27T06:10:15.537Z,101341
2017-08-27T06:12:43.695Z,101345
2017-08-27T06:15:11.893Z,101343
2017-08-27T06:17:40.063Z,101346
2017-08-27T06:20:08.215Z,101338
2017-08-27T06:22:36.413Z,101341
2017-08-27T06:25:04.567Z,101356
2017-08-27T06:27:32.770Z,101344
2017-08-27T06:30:00.954Z,101355
2017-08-27T06:32:29.435Z,101358
2017-08-27T06:34:57.613Z,101350
2017-08-27T06:37:25.792Z,101362
2017-08-27T06:39:53.969Z,101359
2017-08-27T06:42:22.139Z,101359
2017-08-27T06:44:50.331Z,101364
2017-08-27T06:47:18.502Z,101360
2017-08-27T06:49:46.679Z,101365
2017-08-27T06:52:14.880Z,101375
2017-08-27T06:54:43.814Z,101375
2017-08-27T06:57:11.961Z,101377
2017-08-27T06:59:40.138Z,101368
2017-08-27T07:02:08.309Z,101371
2017-08-27T07:04:36.461Z,101374
2017-08-27T07:07:04.635Z,101385
2017-08-27T07:09:32.780Z,101385
2017-08-27T07:12:00.939Z,101386
2017-08-27T07:14:29.132Z,101389
2017-08-27T07:16:57.304Z,101388
2017-08-27T07:19:25.457Z,101394
2017-08-27T07:21:53.637Z,101391
2017-08-27T07:24:21.782Z,101397
2017-08-27T07:26:49.922Z,101394
2017-08-27T07:29:18.095Z,101401
2017-08-27T07:31:46.270Z,101399
2017-08-27T07:34:14.440Z,101398
2017-08-27T07:36:42.609Z,101400
2017-08-27T07:39:10.776Z,101405
2017-08-27T07:41:38.948Z,101400
2017-08-27T07:44:07.119Z,101409
2017-08-27T07:46:35.286Z,101420
2017-08-27T07:49:03.440Z,101412
2017-08-27T07:51:31.621Z,101415
2017-08-27T07:53:59.792Z,101414
2017-08-27T07:56:27.943Z,101409
2017-08-27T07:58:56.126Z,101416
2017-08-27T08:01:24.272Z,101424
2017-08-27T08:03:52.447Z,101413
2017-08-27T08:06:20.622Z,101429
2017-08-27T08:08:48.788Z,101420
2017-08-27T08:11:16.939Z,101420
2017-08-27T08:13:45.132Z,101423
2017-08-27T08:16:13.304Z,101424
2017-08-27T08:18:41.498Z,101420
2017-08-27T08:21:10.452Z,101419
2017-08-27T08:23:38.617Z,101412
2017-08-27T08:26:06.798Z,101431
2017-08-27T08:28:34.972Z,101442
2017-08-27T08:31:03.128Z,101439
2017-08-27T08:33:31.278Z,101443
2017-08-27T08:35:59.478Z,101447
2017-08-27T08:38:27.640Z,101447
2017-08-27T08:40:55.818Z,101448
2017-08-27T08:43:24.010Z,101451
2017-08-27T08:45:52.188Z,101451
2017-08-27T08:48:20.354Z,101453
2017-08-27T08:50:48.528Z,101466
2017-08-27T08:53:16.678Z,101468
2017-08-27T08:55:44.856Z,101480
2017-08-27T08:58:13.023Z,101471
2017-08-27T09:00:41.185Z,101476
2017-08-27T09:03:09.360Z,101489
2017-08-27T09:05:37.553Z,101479
2017-08-27T09:08:05.699Z,101485
2017-08-27T09:10:33.877Z,101490
2017-08-27T09:13:02.071Z,101495
2017-08-27T09:15:30.253Z,101497
2017-08-27T09:17:58.413Z,101494
2017-08-27T09:20:26.616Z,101490
2017-08-27T09:22:54.816Z,101476
2017-08-27T09:25:22.978Z,101470
2017-08-27T09:27:51.158Z,101475
2017-08-27T09:30:19.325Z,101478
2017-08-27T09:32:47.474Z,101477
2017-08-27T09:35:15.670Z,101490
2017-08-27T09:37:43.814Z,101489
2017-08-27T09:40:11.977Z,101483
2017-08-27T09:42:40.937Z,101490
2017-08-27T09:45:09.111Z,101498
2017-08-27T09:47:37.268Z,101498
2017-08-27T09:50:05.444Z,101495
2017-08-27T09:52:33.593Z,101499
2017-08-27T09:55:01.744Z,101494
2017-08-27T09:57:29.944Z,101498
2017-08-27T09:59:58.115Z,101505
2017-08-27T10:02:26.260Z,101504
2017-08-27T10:04:54.432Z,101509
2017-08-27T10:07:22.585Z,101502
2017-08-27T10:09:50.733Z,101511
2017-08-27T10:12:19.662Z,101515
2017-08-27T10:14:47.838Z,101512
2017-08-27T10:17:15.986Z,101517
2017-08-27T10:19:44.172Z,101511
2017-08-27T10:22:12.337Z,101518
2017-08-27T10:24:40.747Z,101521
2017-08-27T10:27:08.931Z,101537
2017-08-27T10:29:37.843Z,101535
2017-08-27T10:32:05.992Z,101542
2017-08-27T10:34:34.928Z,101531
2017-08-27T10:37:03.093Z,101534
2017-08-27T10:39:32.020Z,101544
2017-08-27T10:42:00.212Z,101532
2017-08-27T10:44:28.447Z,101541
2017-08-27T10:46:57.503Z,101546
2017-08-27T10:49:25.678Z,101550
2017-08-27T10:51:53.838Z,101549
2017-08-27T10:54:21.982Z,101546
2017-08-27T10:56:50.182Z,101536
2017-08-27T10:59:18.330Z,101534
2017-08-27T11:01:46.490Z,101532
2017-08-27T11:04:14.677Z,101522
2017-08-27T11:06:42.831Z,101530
2017-08-27T11:09:10.994Z,101532
2017-08-27T11:11:39.198Z,101541
2017-08-27T11:14:07.369Z,101541
2017-08-27T11:16:35.537Z,101547
2017-08-27T11:19:03.711Z,101546
2017-08-27T11:21:31.873Z,101543
2017-08-27T11:24:00.030Z,101537
2017-08-27T11:26:28.206Z,101547
2017-08-27T11:28:57.246Z,101534
2017-08-27T11:31:25.414Z,101535
2017-08-27T11:33:53.602Z,101539
2017-08-27T11:36:21.750Z,101537
2017-08-27T11:38:49.917Z,101540
2017-08-27T11:41:18.107Z,101554
2017-08-27T11:43:46.274Z,101564
2017-08-27T11:48:55.620Z,101557
2017-08-27T11:51:23.496Z,101548
2017-08-27T11:53:51.645Z,101547
2017-08-27T11:56:19.832Z,101549
2017-08-27T11:58:47.984Z,101549
2017-08-27T12:01:16.149Z,101563
2017-08-27T12:03:45.113Z,101570
2017-08-27T12:06:13.281Z,101559
2017-08-27T12:08:41.445Z,101560
2017-08-27T12:11:09.635Z,101549
2017-08-27T12:13:37.799Z,101561
2017-08-27T12:16:05.950Z,101560
2017-08-27T12:18:34.123Z,101562
2017-08-27T12:21:02.285Z,101564
2017-08-27T12:23:30.444Z,101567
2017-08-27T12:25:58.632Z,101579
2017-08-27T12:28:26.792Z,101566
2017-08-27T12:30:54.944Z,101571
2017-08-27T12:33:23.125Z,101572
2017-08-27T12:35:51.298Z,101574
2017-08-27T12:38:19.464Z,101577
2017-08-27T12:40:47.661Z,101580
2017-08-27T12:43:15.831Z,101579
2017-08-27T12:45:44.001Z,101582
2017-08-27T12:48:12.201Z,101586
2017-08-27T12:50:40.357Z,101588
2017-08-27T12:53:08.522Z,101585
2017-08-27T12:55:36.719Z,101576
2017-08-27T12:58:04.862Z,101584
2017-08-27T13:00:33.013Z,101575
2017-08-27T13:03:01.192Z,101581
2017-08-27T13:05:29.361Z,101591
2017-08-27T13:07:57.541Z,101590
2017-08-27T13:10:25.738Z,101596
2017-08-27T13:12:53.911Z,101585
2017-08-27T13:15:22.063Z,101582
2017-08-27T13:17:50.245Z,101591
2017-08-27T13:20:18.394Z,101588
2017-08-27T13:22:46.534Z,101584
2017-08-27T13:25:14.711Z,101591
2017-08-27T13:27:42.863Z,101596
2017-08-27T13:30:11.784Z,101592
2017-08-27T13:32:39.968Z,101584
2017-08-27T13:35:08.141Z,101580
2017-08-27T13:37:36.296Z,101582
2017-08-27T13:40:04.494Z,101581
2017-08-27T13:42:32.648Z,101585
2017-08-27T13:45:00.792Z,101583
2017-08-27T13:47:28.993Z,101587
2017-08-27T13:49:57.165Z,101590
2017-08-27T13:52:25.336Z,101587
2017-08-27T13:54:53.534Z,101596
2017-08-27T13:57:21.702Z,101596
2017-08-27T13:59:49.861Z,101583
2017-08-27T14:02:18.039Z,101593
2017-08-27T14:04:46.213Z,101596
2017-08-27T14:07:14.385Z,101593
2017-08-27T14:09:42.596Z,101594
2017-08-27T14:12:10.754Z,101601
2017-08-27T14:14:38.923Z,101604
2017-08-27T14:17:07.106Z,101597
2017-08-27T14:19:35.269Z,101604
2017-08-27T14:22:03.449Z,101593
2017-08-27T14:24:32.356Z,101592
2017-08-27T14:27:00.553Z,101592
2017-08-27T14:29:28.705Z,101604
2017-08-27T14:31:56.894Z,101603
2017-08-27T14:34:25.050Z,101595
2017-08-27T14:36:53.221Z,101598
2017-08-27T14:39:21.415Z,101598
2017-08-27T14:41:49.583Z,101602
2017-08-27T14:44:17.749Z,101597
2017-08-27T14:46:45.947Z,101595
2017-08-27T14:49:14.958Z,101600
2017-08-27T14:51:43.120Z,101603
2017-08-27T14:54:11.306Z,101603
2017-08-27T14:56:39.477Z,101591
2017-08-27T14:59:07.634Z,101602
2017-08-27T15:01:35.814Z,101596
2017-08-27T15:04:03.988Z,101603
2017-08-27T15:06:32.156Z,101600
2017-08-27T15:09:00.345Z,101600
2017-08-27T15:11:28.493Z,101612
2017-08-27T15:13:56.658Z,101606
2017-08-27T15:16:25.625Z,101602
2017-08-27T15:18:53.785Z,101613
2017-08-27T15:21:21.940Z,101615
2017-08-27T15:23:50.148Z,101609
2017-08-27T15:26:18.322Z,101613
2017-08-27T15:28:46.477Z,101615
2017-08-27T15:31:14.712Z,101620
2017-08-27T15:33:42.882Z,101627
2017-08-27T15:36:11.046Z,101620
2017-08-27T15:38:39.222Z,101624
2017-08-27T15:41:07.366Z,101636
2017-08-27T15:43:35.546Z,101626
2017-08-27T15:46:04.504Z,101628
2017-08-27T15:48:32.660Z,101639
2017-08-27T15:51:00.829Z,101627
2017-08-27T15:53:29.023Z,101636
2017-08-27T15:55:57.193Z,101631
2017-08-27T15:58:25.343Z,101632
2017-08-27T16:00:53.538Z,101633
2017-08-27T16:03:21.683Z,101640
2017-08-27T16:05:49.842Z,101641
2017-08-27T16:08:18.040Z,101638
2017-08-27T16:10:46.183Z,101653
2017-08-27T16:13:14.330Z,101643
2017-08-27T16:15:42.502Z,101635
2017-08-27T16:18:10.668Z,101640
2017-08-27T16:20:38.814Z,101640
2017-08-27T16:23:06.983Z,101647
2017-08-27T16:25:36.076Z,101641
2017-08-27T16:28:04.236Z,101644
2017-08-27T16:30:32.417Z,101647
2017-08-27T16:33:00.589Z,101650
2017-08-27T16:35:28.766Z,101646
2017-08-27T16:37:56.964Z,101648
2017-08-27T16:40:25.120Z,101649
2017-08-27T16:42:53.273Z,101650
2017-08-27T16:45:22.239Z,101648
2017-08-27T16:47:50.405Z,101652
2017-08-27T16:50:18.555Z,101653
2017-08-27T16:52:46.831Z,101656
2017-08-27T16:55:14.992Z,101657
2017-08-27T16:57:44.076Z,101657
2017-08-27T17:00:12.249Z,101654
2017-08-27T17:02:40.419Z,101665
2017-08-27T17:05:08.586Z,101655
2017-08-27T17:07:37.547Z,101655
2017-08-27T17:10:05.697Z,101656
2017-08-27T17:12:33.841Z,101656
2017-08-27T17:15:02.036Z,101649
2017-08-27T17:17:30.183Z,101654
2017-08-27T17:19:58.354Z,101654
2017-08-27T17:22:26.611Z,101649
2017-08-27T17:24:54.778Z,101649
2017-08-27T17:27:22.967Z,101653
2017-08-27T17:29:51.144Z,101652
2017-08-27T17:32:19.324Z,101652
2017-08-27T17:34:47.479Z,101663
2017-08-27T17:37:15.657Z,101664
2017-08-27T17:39:43.832Z,101668
2017-08-27T17:42:11.979Z,101665
2017-08-27T17:44:40.179Z,101668
2017-08-27T17:47:08.332Z,101665
2017-08-27T17:49:36.497Z,101671
2017-08-27T17:52:05.461Z,101671
2017-08-27T17:54:33.626Z,101669
2017-08-27T17:57:01.770Z,101679
2017-08-27T17:59:29.951Z,101673
2017-08-27T18:01:58.106Z,101682
2017-08-27T18:04:26.277Z,101685
2017-08-27T18:06:54.487Z,101691
2017-08-27T18:09:22.685Z,101686
2017-08-27T18:11:50.860Z,101702
2017-08-27T18:14:19.072Z,101694
2017-08-27T18:16:47.252Z,101701
2017-08-27T18:19:15.420Z,101710
2017-08-27T18:21:43.599Z,101708
2017-08-27T18:24:11.776Z,101708
2017-08-27T18:26:39.925Z,101708
2017-08-27T18:29:08.102Z,101712
2017-08-27T18:31:36.270Z,101717
2017-08-27T18:34:04.434Z,101717
2017-08-27T18:36:32.633Z,101716
2017-08-27T18:39:00.817Z,101716
2017-08-27T18:41:28.973Z,101718
2017-08-27T18:43:57.146Z,101721
2017-08-27T18:46:26.080Z,101720
2017-08-27T18:48:54.243Z,101716
2017-08-27T18:51:22.423Z,101719
2017-08-27T18:53:50.629Z,101727
2017-08-27T18:56:18.793Z,101722
2017-08-27T18:58:47.086Z,101728
2017-08-27T19:01:15.252Z,101717
2017-08-27T19:03:49.091Z,101724
2017-08-27T19:06:17.238Z,101734
2017-08-27T19:08:46.336Z,101739
2017-08-27T19:11:14.713Z,101732
2017-08-27T19:13:42.882Z,101731
2017-08-27T19:16:12.116Z,101733
2017-08-27T19:18:40.310Z,101744
2017-08-27T19:21:08.460Z,101745
2017-08-27T19:23:36.602Z,101737
2017-08-27T19:26:04.778Z,101743
2017-08-27T19:28:32.927Z,101738
2017-08-27T19:31:01.070Z,101744
2017-08-27T19:33:29.246Z,101742
2017-08-27T19:35:57.424Z,101739
2017-08-27T19:38:25.594Z,101745
2017-08-27T19:40:53.786Z,101747
2017-08-27T19:43:21.950Z,101740
2017-08-27T19:45:50.118Z,101747
2017-08-27T19:48:18.295Z,101747
2017-08-27T19:50:46.461Z,101752
2017-08-27T19:53:15.372Z,101754
2017-08-27T19:55:43.556Z,101745
2017-08-27T19:58:11.724Z,101758
2017-08-27T20:00:39.866Z,101749
2017-08-27T20:03:08.043Z,101752
2017-08-27T20:05:37.268Z,101759
2017-08-27T20:08:05.422Z,101756
2017-08-27T20:10:33.597Z,101765
2017-08-27T20:13:01.764Z,101767
2017-08-27T20:15:29.923Z,101767
2017-08-27T20:17:58.124Z,101770
2017-08-27T20:20:26.274Z,101773
2017-08-27T20:22:54.450Z,101765
2017-08-27T20:25:22.631Z,101773
2017-08-27T20:27:50.798Z,101767
2017-08-27T20:30:18.962Z,101766
2017-08-27T20:32:47.163Z,101771
2017-08-27T20:35:16.104Z,101770
2017-08-27T20:37:44.273Z,101766
2017-08-27T20:40:12.466Z,101770
2017-08-27T20:42:40.619Z,101773
2017-08-27T20:45:08.784Z,101777
2017-08-27T20:47:37.034Z,101771
2017-08-27T20:50:05.192Z,101770
2017-08-27T20:52:33.345Z,101773
2017-08-27T20:55:01.522Z,101774
2017-08-27T20:57:29.686Z,101775
2017-08-27T20:59:57.834Z,101781
2017-08-27T21:02:26.025Z,101772
2017-08-27T21:04:54.179Z,101776
2017-08-27T21:07:22.345Z,101780
2017-08-27T21:09:50.544Z,101777
2017-08-27T21:12:18.690Z,101784
2017-08-27T21:14:46.838Z,101782
2017-08-27T21:17:15.018Z,101789
2017-08-27T21:19:43.177Z,101786
2017-08-27T21:22:11.327Z,101784
2017-08-27T21:24:39.499Z,101788
2017-08-27T21:27:07.643Z,101791
2017-08-27T21:29:35.791Z,101783
2017-08-27T21:32:04.760Z,101791
2017-08-27T21:34:32.903Z,101784
2017-08-27T21:37:01.045Z,101792
2017-08-27T21:39:29.224Z,101797
2017-08-27T21:41:57.366Z,101799
2017-08-27T21:44:25.515Z,101797
2017-08-27T21:46:53.706Z,101804
2017-08-27T21:49:21.852Z,101803
2017-08-27T21:51:50.012Z,101807
2017-08-27T21:54:18.190Z,101802
2017-08-27T21:56:46.334Z,101805
2017-08-27T21:59:15.249Z,101803
2017-08-27T22:01:43.448Z,101807
2017-08-27T22:04:11.625Z,101810
2017-08-27T22:06:39.796Z,101816
2017-08-27T22:09:07.989Z,101811
2017-08-27T22:11:36.129Z,101811
2017-08-27T22:14:04.294Z,101819
2017-08-27T22:16:32.491Z,101815
2017-08-27T22:19:00.640Z,101826
2017-08-27T22:21:28.782Z,101819
2017-08-27T22:23:56.974Z,101821
2017-08-27T22:26:25.126Z,101818
2017-08-27T22:28:53.270Z,101820
2017-08-27T22:31:21.462Z,101823
2017-08-27T22:33:49.629Z,101827
2017-08-27T22:36:17.774Z,101821
2017-08-27T22:38:45.942Z,101831
2017-08-27T22:41:14.087Z,101830
2017-08-27T22:43:43.018Z,101843
2017-08-27T22:46:12.390Z,101827
2017-08-27T22:48:41.303Z,101835
2017-08-27T22:51:09.451Z,101832
2017-08-27T22:53:37.684Z,101845
2017-08-27T22:56:05.831Z,101840
2017-08-27T22:58:34.002Z,101844
2017-08-27T23:01:02.187Z,101844
2017-08-27T23:03:30.353Z,101839
2017-08-27T23:05:58.494Z,101840
2017-08-27T23:08:27.443Z,101846
2017-08-27T23:10:55.616Z,101848
2017-08-27T23:13:23.790Z,101840
2017-08-27T23:15:51.985Z,101838
2017-08-27T23:18:20.158Z,101831
2017-08-27T23:20:48.308Z,101826
2017-08-27T23:23:16.524Z,101827
2017-08-27T23:25:44.669Z,101832
2017-08-27T23:28:12.833Z,101835
2017-08-27T23:30:41.009Z,101831
2017-08-27T23:33:09.180Z,101823
2017-08-27T23:35:37.329Z,101827
2017-08-27T23:38:05.521Z,101826
2017-08-27T23:40:33.667Z,101822
2017-08-27T23:43:02.597Z,101819
2017-08-27T23:45:30.779Z,101826
2017-08-27T23:47:58.939Z,101824
2017-08-27T23:50:27.082Z,101825
2017-08-27T23:52:55.255Z,101831
2017-08-27T23:55:23.403Z,101827
2017-08-27T23:57:51.549Z,101828
